Impacts METAR Board
IDs:

KLGA - New York/La Guardia, NY, US

Updated at: 1000 UTC 30 Oct 2020
Potential Impact None Slight Moderate High
Time 29/22Z 29/23Z 30/00Z 30/01Z 30/02Z 30/03Z 30/04Z 30/05Z 30/06Z 30/07Z 30/08Z 30/09Z 30/10Z
Temp50 49 49 49 48 47 47 47 46 46 45 44 44
Dewpt47 45 45 46 45 44 44 43 43 43 42 41 40
Altim29.55 29.57 29.59 29.58 29.61 29.63 29.64 29.65 29.66 29.69 29.66 29.66 29.67
VIS2.5 2.5 2.5 2.5 2.5 3 3 5 4 2.5 2.5 5 4
CIG7 11 14 9 11 13 15 16 18 16 13 13 15
CoverOVCOVCOVCOVCOVCOVCOVCOVCOVCOVCOVCOVCOVC
FltCatIFRIFRIFRIFRIFRMVFRMVFRMVFRMVFRIFRIFRMVFRMVFR
WX-RA BRRA BR-RA BR-RA BR-RA BR-RA BR-RA BR-RA BR-RA BR-RA BR-RA BR-RA BRRA BR
WDir30303040303020202030303030
WSpd17 18 16 19 16 15 13 14 12 14 18 15 18
WGst23 24 23 27 -- -- -- 22 19 -- 25 23 23
Raw hourly METARs
KLGA 292151Z 03017G23KT 2 1/2SM -RA BR BKN007 OVC012 10/08 A2955 RMK AO2 PK WND 04031/2124 SFC VIS 4 SLP007 P0011 T01000083
KLGA 292251Z 03018G24KT 2 1/2SM RA BR SCT007 OVC011 09/07 A2957 RMK AO2 PK WND 02027/2226 SFC VIS 4 SLP012 P0005 T00940072
KLGA 292351Z 03016G23KT 2 1/2SM -RA BR OVC014 09/07 A2959 RMK AO2 PK WND 03028/2317 SFC VIS 4 SLP018 P0005 60053 T00940072 10111 20094 53011
KLGA 300102Z 04019G27KT 2 1/2SM -RA BR BKN009 OVC014 09/08 A2958 RMK AO2 PK WND 05027/0100 SFC VIS 4 P0000 T00940078
KLGA 300151Z 03016KT 2 1/2SM -RA BR OVC011 09/07 A2961 RMK AO2 PK WND 04030/0108 SFC VIS 4 SLP026 P0003 T00890072
KLGA 300251Z 03015KT 3SM -RA BR SCT010 OVC013 08/07 A2963 RMK AO2 SLP032 P0001 60008 T00830067 53014
KLGA 300351Z 02013KT 3SM -RA BR SCT008 BKN015 OVC019 08/07 A2964 RMK AO2 SLP037 P0002 T00830067
KLGA 300451Z 02014G22KT 5SM -RA BR OVC016 08/06 A2965 RMK AO2 SLP040 P0001 T00830061 401440083
KLGA 300551Z 02012G19KT 4SM -RA BR OVC018 08/06 A2966 RMK AO2 SLP043 P0004 60015 T00780061 10100 20078 51011
KLGA 300651Z 03014KT 2 1/2SM -RA BR SCT009 BKN016 OVC021 08/06 A2969 RMK AO2 SFC VIS 3 SLP054 P0002 T00780061
KLGA 300751Z 03018G25KT 2 1/2SM -RA BR FEW009 BKN013 OVC021 07/06 A2966 RMK AO2 SFC VIS 3 SLP045 P0003 T00720056
KLGA 300851Z 03015G23KT 5SM -RA BR FEW009 BKN013 OVC021 07/05 A2966 RMK AO2 PK WND 03027/0834 SLP042 P0002 60007 T00670050 58001
KLGA 300951Z 03018G23KT 4SM RA BR BKN015 OVC021 07/04 A2967 RMK AO2 SLP045 P0008 T00670044



Page loaded:  10:29 UTC  |   03:29 AM Pacific  |   04:29 AM Mountain  |   05:29 AM Central  |   06:29 AM Eastern

 

ADVISORIES

FORECASTS

FORECASTS

OBSERVATIONS

USER TOOLS

ABOUT US